Desert Aire, WA

3:07 PM PDT on August 30, 2016 (GMT -0700)
APRSWXNET | | Change Station

Elev 538 ft 46.68 °N, 119.92 °W | Updated 23 minutes ago

Clear
Clear
86 °F
Feels Like 84 °F
N
2
Wind Variable Wind from SSE
Gusts 6.0 mph

Today
High -- | Low -- °F
--% Chance of Precip.
Yesterday
High -- | Low -- °F
Precip. -- in
Pressure 29.85 in
Visibility 10.0 miles
Clouds Clear
Heat Index 84 °F
Dew Point 49 °F
Humidity 28%
Rainfall in
Snow Depth Not available.
6:17 AM 7:41 PM
Waning Crescent, 2% visible
METAR KYKM 302153Z 15003KT 10SM CLR 29/04 A2986 RMK AO2 SLP106 T02890044
Pressure 29.85 in
Visibility 10.0 miles
Clouds Clear
Heat Index 84 °F
Dew Point 49 °F
Humidity 28%
Rainfall in
Snow Depth Not available.
6:17 AM 7:41 PM
Waning Crescent, 2% visible
METAR KYKM 302153Z 15003KT 10SM CLR 29/04 A2986 RMK AO2 SLP106 T02890044

10-Day Weather Forecast

Almanac

Astronomy

Aug. 30, 2016 Rise Set
Actual Time
Civil Twilight
Nautical Twilight
Astronomical Twilight
Moon
Length of Visible Light
Length of Day
Tomorrow will be .
, % of the Moon is Illuminated

Today's Extremes

State Highs State Lows

Community

WunderPhotos

Upload Photos

1,935,903 photos uploaded!

WunderBlog® & News

Nearby

Air Quality

  Air Quality AQ Index Pollutant
Not available.

Snow Depth

Station Depth Elevation

Earthquake Activity

City Distance Mag. Time & Date
Minimum magnitude displayed is 2.5.

Coastal Water Temperatures

Place Temperature

Stations

Nearby Weather Stations

Station Location Temp. Windchill Dew Point Humidity Wind Precip. Elev Updated Type
                   

Watches & Warnings

There are currently no watches in effect.